Time;durP1;ratioP1;P1;durP2;ratioP2;P2;SDS_P1;SDS_P2;PMS_P1;PMS_P2;Temp;Humidity;BMP_temperature;BMP_pressure;BME280_temperature;BME280_humidity;BME280_pressure;Samples;Min_cycle;Max_cycle;Signal;HPM_P1;HPM_P2
2024/01/13 00:00:50;;;;;;;45.00;23.37;;;;;;;-3.02;95.06;98504.69;6332875;27;20247;-47
2024/01/13 00:03:52;;;;;;;43.43;22.20;;;;;;;-3.13;96.64;98523.91;6301787;27;20218;-47
2024/01/13 00:06:54;;;;;;;45.00;21.50;;;;;;;-3.17;95.89;98513.88;6333449;27;20197;-48
2024/01/13 00:09:56;;;;;;;46.93;22.73;;;;;;;-3.28;96.89;98519.22;6329941;27;20193;-50
2024/01/13 00:13:00;;;;;;;40.17;21.63;;;;;;;-3.19;96.03;98518.41;6328825;27;20674;-48
2024/01/13 00:16:02;;;;;;;44.57;22.53;;;;;;;-3.33;97.74;98519.59;6317407;27;20747;-48
2024/01/13 00:19:05;;;;;;;45.07;23.47;;;;;;;-3.59;98.63;98484.59;6331358;27;20189;-48
2024/01/13 00:22:08;;;;;;;43.07;22.27;;;;;;;-3.55;99.60;98493.75;6332376;27;20195;-49
2024/01/13 00:25:10;;;;;;;46.73;23.90;;;;;;;-3.40;97.91;98518.47;6332566;27;20687;-48
2024/01/13 00:28:12;;;;;;;49.53;23.93;;;;;;;-3.52;99.00;98522.97;6332493;27;20200;-46
2024/01/13 00:31:29;;;;;;;46.57;22.67;;;;;;;-3.53;100.00;98523.94;6329216;27;20190;-46
2024/01/13 00:34:31;;;;;;;42.20;22.80;;;;;;;-3.56;99.42;98515.56;6313249;28;21273;-49
2024/01/13 00:37:33;;;;;;;37.40;20.53;;;;;;;-3.48;98.01;98516.53;6328892;27;21036;-49
2024/01/13 00:40:35;;;;;;;46.67;23.63;;;;;;;-3.67;99.74;98504.28;6298864;28;20283;-47
2024/01/13 00:43:38;;;;;;;43.53;22.53;;;;;;;-3.52;99.08;98525.56;6312204;27;20266;-48
2024/01/13 00:46:41;;;;;;;43.67;20.47;;;;;;;-3.74;99.14;98508.38;6334047;27;20294;-46
2024/01/13 00:49:43;;;;;;;45.17;21.93;;;;;;;-3.87;99.52;98502.56;6329661;27;20259;-48
2024/01/13 00:52:45;;;;;;;41.03;21.27;;;;;;;-3.84;100.00;98509.25;6331677;27;20299;-47
2024/01/13 00:55:47;;;;;;;38.53;19.27;;;;;;;-3.77;100.00;98516.44;6328818;27;20273;-47
2024/01/13 00:58:50;;;;;;;37.43;19.20;;;;;;;-3.66;99.92;98518.94;6330017;27;21050;-47
2024/01/13 01:01:52;;;;;;;41.57;20.60;;;;;;;-3.72;99.33;98510.84;6325691;28;20201;-48
2024/01/13 01:04:54;;;;;;;38.77;20.43;;;;;;;-3.77;100.00;98520.81;6325477;27;20735;-47
2024/01/13 01:07:56;;;;;;;46.07;22.87;;;;;;;-3.80;100.00;98515.88;6327164;28;20201;-49
2024/01/13 01:11:00;;;;;;;42.17;21.43;;;;;;;-3.72;99.23;98506.44;6327213;28;20189;-48
2024/01/13 01:14:02;;;;;;;44.03;23.20;;;;;;;-3.77;100.00;98511.22;6308357;28;20328;-48
2024/01/13 01:17:05;;;;;;;45.67;22.50;;;;;;;-3.95;100.00;98498.00;6326283;28;20196;-47
2024/01/13 01:20:08;;;;;;;45.13;21.67;;;;;;;-4.05;100.00;98478.91;6323414;28;20212;-45
2024/01/13 01:23:10;;;;;;;51.50;23.37;;;;;;;-3.90;100.00;98510.63;6308878;28;20201;-50
2024/01/13 01:26:13;;;;;;;46.60;23.60;;;;;;;-3.94;100.00;98497.06;6325352;28;20185;-48
2024/01/13 01:29:15;;;;;;;51.70;25.43;;;;;;;-3.85;100.00;98479.00;6309250;28;20214;-45
2024/01/13 01:32:17;;;;;;;47.27;24.23;;;;;;;-3.95;100.00;98474.56;6329345;28;20280;-48
2024/01/13 01:35:19;;;;;;;49.50;25.20;;;;;;;-3.90;100.00;98461.97;6325501;28;20217;-49
2024/01/13 01:38:21;;;;;;;52.10;24.13;;;;;;;-3.90;100.00;98454.19;6330096;28;20297;-48
2024/01/13 01:41:40;;;;;;;41.90;22.53;;;;;;;-3.97;100.00;98439.22;6330593;28;20185;-47
2024/01/13 01:44:42;;;;;;;46.07;22.63;;;;;;;-3.88;100.00;98442.84;6330677;28;20198;-47
2024/01/13 01:47:45;;;;;;;43.37;23.53;;;;;;;-3.71;99.22;98436.97;6327689;27;21372;-49
2024/01/13 01:50:48;;;;;;;46.90;23.50;;;;;;;-3.90;100.00;98438.56;6334155;27;20223;-49
2024/01/13 01:53:50;;;;;;;44.17;23.37;;;;;;;-3.90;100.00;98435.13;6334976;27;20521;-47
2024/01/13 01:56:53;;;;;;;45.13;22.97;;;;;;;-3.81;99.83;98425.72;6333655;27;21107;-47
2024/01/13 01:59:56;;;;;;;46.97;22.93;;;;;;;-3.70;99.89;98412.59;6330920;27;20208;-46
2024/01/13 02:02:59;;;;;;;42.37;21.60;;;;;;;-3.69;99.07;98419.47;6335309;27;20284;-48
2024/01/13 02:06:02;;;;;;;40.37;21.50;;;;;;;-3.85;99.49;98406.13;6332200;27;20190;-46
2024/01/13 02:09:05;;;;;;;44.53;22.87;;;;;;;-3.63;98.23;98424.13;6335066;27;20612;-47
2024/01/13 02:12:08;;;;;;;43.80;21.23;;;;;;;-3.85;99.01;98406.13;6335067;27;20564;-46
2024/01/13 02:15:11;;;;;;;40.90;21.37;;;;;;;-3.88;99.85;98412.44;6334076;27;20204;-44
2024/01/13 02:18:13;;;;;;;46.10;22.30;;;;;;;-3.86;99.97;98413.09;6337939;27;20230;-47
2024/01/13 02:21:28;;;;;;;43.83;21.63;;;;;;;-3.92;100.00;98409.25;6334043;27;20200;-48
2024/01/13 02:24:31;;;;;;;46.27;23.23;;;;;;;-3.71;99.44;98406.56;6335552;27;20193;-48
2024/01/13 02:27:33;;;;;;;42.90;20.57;;;;;;;-3.88;99.54;98383.78;6317927;27;20323;-50
2024/01/13 02:30:35;;;;;;;43.53;22.50;;;;;;;-3.93;100.00;98385.97;6316448;27;20203;-48
2024/01/13 02:33:38;;;;;;;51.20;24.00;;;;;;;-3.81;100.00;98390.09;6332515;27;20194;-47
2024/01/13 02:36:40;;;;;;;49.20;23.40;;;;;;;-3.81;100.00;98387.50;6334302;27;20354;-45
2024/01/13 02:39:42;;;;;;;46.47;22.77;;;;;;;-3.73;98.84;98368.63;6334018;27;20210;-47
2024/01/13 02:42:44;;;;;;;48.47;22.80;;;;;;;-3.79;99.87;98382.16;6337600;27;20189;-45
2024/01/13 02:45:47;;;;;;;48.27;24.33;;;;;;;-3.77;98.85;98375.03;6303335;27;20664;-50
2024/01/13 02:48:54;;;;;;;44.63;22.07;;;;;;;-3.74;98.96;98375.59;6334983;27;20203;-46
2024/01/13 02:51:56;;;;;;;48.07;22.47;;;;;;;-3.77;99.37;98380.25;6329759;27;20311;-48
2024/01/13 02:54:58;;;;;;;47.77;22.97;;;;;;;-3.54;97.87;98379.06;6313979;28;20224;-48
2024/01/13 02:58:01;;;;;;;48.63;23.57;;;;;;;-3.63;98.02;98383.28;6332337;27;20186;-45
2024/01/13 03:01:06;;;;;;;52.33;24.23;;;;;;;-3.87;98.59;98371.59;6330039;27;20269;-47
2024/01/13 03:04:09;;;;;;;51.63;22.97;;;;;;;-3.65;97.99;98376.56;6333368;27;20669;-46
2024/01/13 03:07:11;;;;;;;48.67;23.60;;;;;;;-3.73;97.79;98372.03;6333396;27;20224;-49
2024/01/13 03:10:13;;;;;;;46.27;22.30;;;;;;;-3.81;98.71;98360.66;6331203;27;20201;-46
2024/01/13 03:13:15;;;;;;;45.10;22.27;;;;;;;-3.81;98.56;98358.03;6329592;27;20942;-48
2024/01/13 03:16:18;;;;;;;46.20;24.10;;;;;;;-3.91;99.59;98348.44;6332746;27;20674;-49
2024/01/13 03:19:20;;;;;;;47.93;23.00;;;;;;;-3.82;98.45;98330.38;6330120;27;20193;-45
2024/01/13 03:22:23;;;;;;;46.27;21.90;;;;;;;-3.82;97.96;98331.19;6328669;27;20193;-50
2024/01/13 03:25:25;;;;;;;46.70;22.73;;;;;;;-3.81;98.22;98339.81;6330767;27;20190;-48
2024/01/13 03:28:27;;;;;;;43.73;22.13;;;;;;;-3.87;99.08;98333.38;6331234;27;20637;-48
2024/01/13 03:31:42;;;;;;;48.97;23.40;;;;;;;-3.75;97.70;98334.06;6324898;27;20182;-47
2024/01/13 03:34:44;;;;;;;44.93;20.47;;;;;;;-3.86;98.09;98331.59;6329356;28;20255;-47
2024/01/13 03:37:46;;;;;;;42.80;21.03;;;;;;;-3.83;97.63;98331.34;6330475;27;20233;-47
2024/01/13 03:40:48;;;;;;;43.40;21.57;;;;;;;-3.97;98.49;98320.34;6330781;27;20688;-47
2024/01/13 03:43:51;;;;;;;44.40;20.77;;;;;;;-3.93;98.34;98320.91;6332245;27;20193;-45
2024/01/13 03:46:53;;;;;;;43.20;21.53;;;;;;;-3.84;97.59;98322.72;6332775;27;20355;-48
2024/01/13 03:49:55;;;;;;;41.83;21.07;;;;;;;-3.91;97.35;98325.00;6330542;27;20306;-45
2024/01/13 03:52:58;;;;;;;37.87;19.57;;;;;;;-4.00;97.87;98332.78;6314418;27;20241;-46
2024/01/13 03:56:01;;;;;;;40.87;19.13;;;;;;;-4.07;97.59;98306.50;6331210;27;20280;-46
2024/01/13 03:59:04;;;;;;;38.50;18.20;;;;;;;-4.24;98.00;98276.75;6327285;27;20212;-45
2024/01/13 04:02:06;;;;;;;39.43;18.53;;;;;;;-4.14;98.36;98320.97;6326096;27;21080;-47
2024/01/13 04:05:09;;;;;;;37.93;18.87;;;;;;;-4.25;99.06;98316.72;6329237;28;20874;-48
2024/01/13 04:08:11;;;;;;;38.20;18.70;;;;;;;-4.31;99.34;98324.22;6333713;27;20205;-47
2024/01/13 04:11:14;;;;;;;37.10;17.77;;;;;;;-4.23;99.56;98312.22;6327250;27;20222;-47
2024/01/13 04:14:16;;;;;;;37.97;17.00;;;;;;;-4.42;99.25;98297.38;6333203;27;20285;-46
2024/01/13 04:17:18;;;;;;;37.43;17.17;;;;;;;-4.52;100.00;98306.94;6330031;27;20258;-45
2024/01/13 04:20:21;;;;;;;33.33;16.93;;;;;;;-4.42;100.00;98306.97;6330594;27;20193;-47
2024/01/13 04:23:23;;;;;;;37.23;17.67;;;;;;;-4.59;100.00;98284.97;6333250;27;20201;-46
2024/01/13 04:26:26;;;;;;;35.67;16.97;;;;;;;-4.74;100.00;98278.50;6328499;27;20671;-46
2024/01/13 04:29:28;;;;;;;37.57;17.67;;;;;;;-4.63;100.00;98282.78;6331585;28;20314;-46
2024/01/13 04:32:30;;;;;;;32.17;16.63;;;;;;;-4.78;100.00;98280.56;6327484;27;21191;-48
2024/01/13 04:35:32;;;;;;;28.57;15.37;;;;;;;-4.80;100.00;98260.84;6313407;28;20201;-45
2024/01/13 04:38:35;;;;;;;36.67;17.40;;;;;;;-4.84;100.00;98275.03;6330967;27;20224;-48
2024/01/13 04:41:41;;;;;;;39.53;18.50;;;;;;;-4.32;100.00;98266.19;6332826;27;20280;-50
2024/01/13 04:44:43;;;;;;;36.30;17.60;;;;;;;-4.51;100.00;98253.16;6315401;28;20193;-48
2024/01/13 04:47:45;;;;;;;33.40;16.50;;;;;;;-4.63;100.00;98226.44;6330076;27;20712;-48
2024/01/13 04:50:48;;;;;;;37.30;17.33;;;;;;;-4.44;100.00;98246.44;6330435;27;20253;-45
2024/01/13 04:53:50;;;;;;;38.30;18.33;;;;;;;-4.53;100.00;98240.28;6331891;27;20220;-47
2024/01/13 04:56:53;;;;;;;36.47;16.73;;;;;;;-4.26;100.00;98259.63;6328847;28;20194;-45
2024/01/13 04:59:55;;;;;;;35.97;17.80;;;;;;;-4.40;100.00;98268.63;6327914;27;20197;-48
2024/01/13 05:02:57;;;;;;;39.80;17.83;;;;;;;-4.43;100.00;98256.72;6315684;28;20204;-46
2024/01/13 05:06:00;;;;;;;34.07;18.30;;;;;;;-4.48;100.00;98256.31;6331371;27;20199;-46
2024/01/13 05:09:02;;;;;;;38.80;18.73;;;;;;;-4.41;100.00;98260.00;6327131;27;20197;-47
2024/01/13 05:12:05;;;;;;;31.87;16.10;;;;;;;-4.60;100.00;98248.72;6316227;28;20277;-48
2024/01/13 05:15:08;;;;;;;32.97;15.60;;;;;;;-4.50;100.00;98257.38;6327639;27;20208;-45
2024/01/13 05:18:10;;;;;;;31.80;15.37;;;;;;;-4.59;100.00;98269.38;6327542;28;20194;-45
2024/01/13 05:21:13;;;;;;;31.30;15.13;;;;;;;-4.82;100.00;98239.38;6311085;28;20342;-48
2024/01/13 05:24:15;;;;;;;34.53;17.07;;;;;;;-4.53;100.00;98257.63;6329854;28;20266;-48
2024/01/13 05:27:19;;;;;;;34.40;15.83;;;;;;;-4.62;100.00;98248.88;6332863;28;20259;-48
2024/01/13 05:30:22;;;;;;;32.13;15.23;;;;;;;-4.61;100.00;98260.91;6331008;28;20182;-47
2024/01/13 05:33:24;;;;;;;30.20;16.20;;;;;;;-4.74;100.00;98242.94;6332991;28;20193;-46
2024/01/13 05:36:26;;;;;;;32.23;14.97;;;;;;;-4.75;100.00;98256.06;6335079;28;20237;-45
2024/01/13 05:39:29;;;;;;;32.37;15.50;;;;;;;-4.45;100.00;98255.22;6326804;28;20189;-48
2024/01/13 05:42:31;;;;;;;36.03;16.27;;;;;;;-4.22;100.00;98267.03;6340483;28;20195;-46
2024/01/13 05:45:33;;;;;;;33.63;16.33;;;;;;;-4.32;100.00;98271.41;6327475;28;20201;-48
2024/01/13 05:48:35;;;;;;;34.73;16.80;;;;;;;-4.41;100.00;98269.59;6333300;28;20201;-46
2024/01/13 05:51:38;;;;;;;34.43;16.23;;;;;;;-4.38;100.00;98274.53;6333651;28;20268;-46
2024/01/13 05:54:40;;;;;;;34.63;16.83;;;;;;;-4.37;100.00;98264.97;6352866;28;20191;-44
2024/01/13 05:57:42;;;;;;;32.00;15.80;;;;;;;-4.50;100.00;98265.19;6335189;28;20198;-46
2024/01/13 06:00:44;;;;;;;33.23;15.80;;;;;;;-4.26;100.00;98275.25;6333972;28;20808;-48
2024/01/13 06:03:47;;;;;;;34.47;16.10;;;;;;;-4.20;100.00;98264.28;6318054;28;20193;-48
2024/01/13 06:06:49;;;;;;;37.40;17.97;;;;;;;-3.92;100.00;98273.91;6332585;28;21261;-45
2024/01/13 06:09:52;;;;;;;33.00;17.03;;;;;;;-4.09;100.00;98268.56;6330060;28;20318;-49
2024/01/13 06:12:54;;;;;;;32.33;17.10;;;;;;;-4.25;100.00;98275.09;6332250;28;20311;-47
2024/01/13 06:15:56;;;;;;;36.13;17.30;;;;;;;-3.82;98.94;98270.50;6309536;28;20248;-45
2024/01/13 06:18:58;;;;;;;32.30;16.20;;;;;;;-3.81;99.12;98274.75;6329175;28;20185;-47
2024/01/13 06:22:02;;;;;;;33.90;17.57;;;;;;;-4.06;98.81;98265.69;6332998;28;20211;-47
2024/01/13 06:25:07;;;;;;;35.53;16.63;;;;;;;-3.98;99.84;98287.47;6328694;28;20200;-46
2024/01/13 06:28:09;;;;;;;35.40;16.47;;;;;;;-4.03;99.96;98281.03;6328080;28;20189;-46
2024/01/13 06:31:11;;;;;;;33.03;16.03;;;;;;;-4.12;100.00;98281.84;6332538;28;20193;-46
2024/01/13 06:34:13;;;;;;;38.20;17.50;;;;;;;-4.29;100.00;98285.91;6332001;27;20749;-46
2024/01/13 06:37:16;;;;;;;29.93;15.30;;;;;;;-4.63;100.00;98261.97;6338326;27;20573;-48
2024/01/13 06:40:18;;;;;;;32.33;16.63;;;;;;;-4.23;100.00;98293.19;6335274;27;20655;-48
2024/01/13 06:43:20;;;;;;;30.17;15.33;;;;;;;-4.26;100.00;98288.25;6336961;27;20194;-46
2024/01/13 06:46:22;;;;;;;33.80;16.43;;;;;;;-4.39;100.00;98285.88;6336597;27;20228;-47
2024/01/13 06:49:24;;;;;;;34.47;16.17;;;;;;;-4.45;100.00;98270.81;6330724;28;20589;-47
2024/01/13 06:52:27;;;;;;;37.57;16.17;;;;;;;-4.50;100.00;98267.78;6332264;27;20193;-50
2024/01/13 06:55:29;;;;;;;31.80;15.40;;;;;;;-4.25;100.00;98264.69;6336890;27;20279;-47
2024/01/13 06:58:32;;;;;;;32.73;15.83;;;;;;;-4.51;100.00;98242.75;6334183;27;20202;-45
2024/01/13 07:01:34;;;;;;;27.73;13.47;;;;;;;-4.39;100.00;98267.66;6330806;27;20244;-49
2024/01/13 07:04:37;;;;;;;33.83;15.43;;;;;;;-4.42;100.00;98266.19;6334912;27;20178;-46
2024/01/13 07:07:40;;;;;;;29.00;14.07;;;;;;;-4.34;100.00;98264.66;6329719;28;20192;-45
2024/01/13 07:10:43;;;;;;;30.30;14.20;;;;;;;-4.18;100.00;98270.19;6331917;27;20204;-46
2024/01/13 07:13:45;;;;;;;27.53;14.20;;;;;;;-3.95;100.00;98268.97;6331901;27;20193;-45
2024/01/13 07:16:47;;;;;;;32.93;14.83;;;;;;;-3.90;100.00;98269.38;6333252;27;20202;-46
2024/01/13 07:19:49;;;;;;;41.17;14.63;;;;;;;-3.93;100.00;98267.09;6334639;27;20182;-47
2024/01/13 07:22:52;;;;;;;32.33;14.23;;;;;;;-3.86;100.00;98253.50;6331300;27;20298;-48
2024/01/13 07:25:55;;;;;;;26.63;13.43;;;;;;;-3.74;98.96;98260.25;6327290;27;20193;-46
2024/01/13 07:28:57;;;;;;;32.57;15.23;;;;;;;-3.66;98.51;98260.38;6332307;27;20533;-46
2024/01/13 07:32:00;;;;;;;31.50;13.87;;;;;;;-3.61;97.98;98257.34;6334485;27;20554;-47
2024/01/13 07:35:02;;;;;;;30.23;14.77;;;;;;;-3.68;98.72;98254.47;6333653;27;20317;-47
2024/01/13 07:38:05;;;;;;;33.03;14.87;;;;;;;-3.58;97.90;98257.91;6336796;27;20230;-48
2024/01/13 07:41:07;;;;;;;35.63;15.43;;;;;;;-3.54;97.82;98259.28;6331139;27;20284;-47
2024/01/13 07:44:10;;;;;;;33.90;15.17;;;;;;;-3.60;98.45;98253.78;6335488;27;20186;-48
2024/01/13 07:47:12;;;;;;;33.10;15.70;;;;;;;-3.57;98.34;98243.91;6337344;27;20268;-49
2024/01/13 07:50:14;;;;;;;36.43;16.33;;;;;;;-3.51;98.08;98265.97;6337162;27;20185;-48
2024/01/13 07:53:17;;;;;;;33.40;14.97;;;;;;;-3.42;97.73;98254.72;6340916;27;20190;-46
2024/01/13 07:56:19;;;;;;;32.60;15.43;;;;;;;-3.43;97.50;98234.84;6335611;27;20201;-47
2024/01/13 07:59:23;;;;;;;35.60;15.77;;;;;;;-3.38;97.89;98240.47;6336856;27;20224;-47
2024/01/13 08:02:25;;;;;;;35.67;16.43;;;;;;;-3.24;96.65;98234.00;6326165;27;20193;-50
2024/01/13 08:05:27;;;;;;;36.77;16.20;;;;;;;-3.34;97.23;98225.38;6340031;27;20334;-47
2024/01/13 08:08:32;;;;;;;29.83;15.33;;;;;;;-3.38;98.22;98223.06;6333632;27;20190;-48
2024/01/13 08:11:35;;;;;;;34.20;15.97;;;;;;;-3.45;98.42;98224.59;6335535;27;20275;-48
2024/01/13 08:14:42;;;;;;;32.00;15.37;;;;;;;-3.21;96.73;98228.50;6331863;27;20201;-48
2024/01/13 08:17:44;;;;;;;29.23;13.93;;;;;;;-3.14;95.94;98226.97;6316611;27;20206;-46
2024/01/13 08:20:46;;;;;;;32.70;14.50;;;;;;;-3.19;95.88;98234.41;6331710;27;20208;-47
2024/01/13 08:23:48;;;;;;;34.30;14.83;;;;;;;-3.28;96.09;98223.03;6335363;27;20679;-50
2024/01/13 08:26:53;;;;;;;29.40;13.97;;;;;;;-3.15;95.66;98231.38;6333558;27;20274;-51
2024/01/13 08:29:56;;;;;;;34.60;16.43;;;;;;;-3.12;95.81;98231.06;6334268;27;20687;-47
2024/01/13 08:32:58;;;;;;;30.27;13.93;;;;;;;-2.96;94.27;98237.47;6332105;28;20769;-46
2024/01/13 08:36:00;;;;;;;33.30;14.90;;;;;;;-3.03;94.87;98242.44;6334493;27;20242;-46
2024/01/13 08:39:03;;;;;;;27.47;14.27;;;;;;;-2.75;93.23;98232.88;6335031;27;20231;-47
2024/01/13 08:42:05;;;;;;;30.27;14.97;;;;;;;-2.76;92.38;98220.78;6314874;28;20577;-47
2024/01/13 08:45:08;;;;;;;29.40;14.00;;;;;;;-2.83;93.29;98213.69;6328573;27;20239;-46
2024/01/13 08:48:13;;;;;;;30.40;15.20;;;;;;;-2.88;94.49;98219.34;6331474;27;20210;-47
2024/01/13 08:51:17;;;;;;;31.13;14.67;;;;;;;-2.80;93.58;98219.44;6318162;28;20189;-47
2024/01/13 08:54:35;;;;;;;28.07;13.07;;;;;;;-2.62;91.22;98198.63;6342561;27;20193;-45
2024/01/13 08:57:37;;;;;;;34.87;15.97;;;;;;;-2.63;92.35;98203.03;6315362;28;20206;-45
2024/01/13 09:00:39;;;;;;;31.40;13.90;;;;;;;-2.46;91.29;98188.38;6309785;28;20261;-49
2024/01/13 09:03:41;;;;;;;32.27;14.80;;;;;;;-2.36;91.65;98196.97;6331462;28;20197;-48
2024/01/13 09:06:44;;;;;;;32.23;14.93;;;;;;;-2.29;91.02;98185.94;6330334;27;20660;-46
2024/01/13 09:09:46;;;;;;;31.93;16.17;;;;;;;-2.13;90.45;98181.69;6315943;28;20824;-49
2024/01/13 09:12:48;;;;;;;35.97;15.40;;;;;;;-2.16;90.25;98173.34;6334421;28;20218;-46
2024/01/13 09:15:51;;;;;;;37.00;15.87;;;;;;;-2.08;89.83;98171.63;6334218;28;20284;-45
2024/01/13 09:18:53;;;;;;;34.93;14.93;;;;;;;-1.96;89.42;98174.84;6330930;28;20212;-46
2024/01/13 09:21:56;;;;;;;31.13;14.63;;;;;;;-1.91;89.01;98177.81;6331561;28;20687;-46
2024/01/13 09:24:59;;;;;;;31.67;16.03;;;;;;;-1.85;88.31;98174.59;6332948;28;20200;-48
2024/01/13 09:28:01;;;;;;;31.13;16.13;;;;;;;-1.86;89.21;98180.78;6332007;28;20259;-46
2024/01/13 09:31:04;;;;;;;35.20;15.77;;;;;;;-1.93;87.41;98131.94;6319650;28;20295;-47
2024/01/13 09:34:09;;;;;;;30.63;15.33;;;;;;;-1.69;87.85;98176.50;6335465;28;20193;-50
2024/01/13 09:37:15;;;;;;;29.57;15.17;;;;;;;-1.64;87.96;98181.28;6330378;28;20269;-45
2024/01/13 09:40:19;;;;;;;32.70;15.60;;;;;;;-1.47;87.22;98167.38;6335163;28;20193;-49
2024/01/13 09:43:55;;;;;;;31.27;16.03;;;;;;;-1.38;85.61;98163.00;6327739;28;20193;-49
2024/01/13 09:46:59;;;;;;;33.10;15.50;;;;;;;-1.19;86.37;98151.50;6333662;28;20189;-48
2024/01/13 09:50:04;;;;;;;30.70;16.43;;;;;;;-0.90;84.34;98151.97;6329193;28;20840;-49
2024/01/13 09:53:08;;;;;;;31.13;15.47;;;;;;;-0.81;83.10;98137.13;6333818;28;22318;-49
2024/01/13 09:56:17;;;;;;;32.83;16.00;;;;;;;-0.64;82.30;98143.22;6330697;28;20207;-49
2024/01/13 09:59:22;;;;;;;28.80;14.03;;;;;;;-0.62;81.20;98122.97;6336183;28;20186;-50
2024/01/13 10:02:25;;;;;;;29.43;15.03;;;;;;;-0.49;81.65;98112.00;6336223;28;20189;-47
2024/01/13 10:05:29;;;;;;;32.00;15.40;;;;;;;-0.34;79.52;98126.13;6333667;28;20190;-48
2024/01/13 10:08:32;;;;;;;31.10;15.33;;;;;;;-0.26;78.67;98110.41;6336061;27;20205;-47
2024/01/13 10:11:35;;;;;;;30.13;15.33;;;;;;;-0.46;78.65;98072.44;6340913;27;20321;-46
2024/01/13 10:14:38;;;;;;;28.87;14.10;;;;;;;-0.33;78.24;98080.66;6322674;28;20185;-48
2024/01/13 10:17:43;;;;;;;27.87;13.53;;;;;;;-0.35;79.05;98091.25;6336398;27;20857;-49
2024/01/13 10:20:46;;;;;;;27.73;13.87;;;;;;;-0.12;79.28;98107.16;6336355;27;20198;-47
2024/01/13 10:23:48;;;;;;;31.43;15.20;;;;;;;-0.05;76.94;98096.84;6331789;27;20189;-46
2024/01/13 10:26:50;;;;;;;30.27;13.97;;;;;;;-0.03;75.56;98093.09;6338058;27;20226;-48
2024/01/13 10:29:53;;;;;;;27.30;13.87;;;;;;;0.03;76.77;98086.38;6339685;27;20379;-48
2024/01/13 10:32:58;;;;;;;29.63;14.73;;;;;;;0.13;76.50;98080.97;6341914;27;20203;-51
2024/01/13 10:36:02;;;;;;;29.40;14.43;;;;;;;0.24;73.89;98085.84;6335156;27;20294;-46
2024/01/13 10:39:04;;;;;;;26.93;12.87;;;;;;;0.25;74.14;98084.88;6334894;27;20576;-50
2024/01/13 10:42:09;;;;;;;26.03;13.13;;;;;;;0.33;75.07;98082.22;6341124;27;20584;-48
2024/01/13 10:45:17;;;;;;;28.67;13.50;;;;;;;0.31;74.03;98062.44;6316152;28;20205;-47
2024/01/13 10:48:47;;;;;;;28.70;15.15;;;;;;;0.56;71.79;98069.25;6327003;27;20451;-56
2024/01/13 10:51:56;;;;;;;25.20;14.13;;;;;;;0.64;72.91;98064.00;6327077;27;20774;-47
2024/01/13 10:55:03;;;;;;;26.60;13.90;;;;;;;0.76;70.25;98060.00;6335424;27;20196;-49
2024/01/13 10:58:06;;;;;;;26.30;13.30;;;;;;;0.76;69.54;98057.38;6330666;27;20684;-50
2024/01/13 11:01:08;;;;;;;28.23;14.50;;;;;;;0.77;69.84;98031.97;6335394;27;20786;-48
2024/01/13 11:04:22;;;;;;;23.60;13.70;;;;;;;0.71;68.69;98027.41;6320409;27;20653;-46
2024/01/13 11:07:25;;;;;;;27.03;13.47;;;;;;;0.94;69.43;98043.22;6333944;27;20188;-51
2024/01/13 11:10:32;;;;;;;28.10;14.30;;;;;;;0.97;68.79;98043.66;6333776;27;20246;-48
2024/01/13 11:13:45;;;;;;;25.70;13.27;;;;;;;0.97;68.96;98014.00;6336925;27;20200;-50
2024/01/13 11:16:48;;;;;;;24.00;12.33;;;;;;;1.17;66.85;98022.25;6335006;27;20210;-51
2024/01/13 11:19:50;;;;;;;25.13;12.20;;;;;;;1.09;69.95;98015.25;6334009;27;20197;-47
2024/01/13 11:22:57;;;;;;;26.63;12.77;;;;;;;0.95;67.89;97982.72;6338615;27;20278;-50
2024/01/13 11:26:00;;;;;;;23.43;12.73;;;;;;;1.15;68.43;97990.13;6336818;27;20189;-48
2024/01/13 11:29:16;;;;;;;23.30;12.63;;;;;;;1.19;69.35;98007.97;6322263;27;20677;-50
2024/01/13 11:32:20;;;;;;;22.07;11.83;;;;;;;1.20;65.55;98006.97;6333769;27;20197;-46
2024/01/13 11:35:22;;;;;;;23.13;12.07;;;;;;;1.02;67.87;97998.56;6334452;27;20781;-48
2024/01/13 11:38:25;;;;;;;24.77;12.77;;;;;;;1.06;68.00;98002.47;6330562;27;20226;-49
2024/01/13 11:41:40;;;;;;;23.40;11.80;;;;;;;1.20;66.04;97993.03;6333105;27;20247;-47
2024/01/13 11:44:44;;;;;;;24.77;10.83;;;;;;;1.15;68.97;97983.06;6332303;27;20194;-49
2024/01/13 11:47:47;;;;;;;19.77;10.90;;;;;;;1.08;68.77;97981.31;6311297;27;20352;-51
2024/01/13 11:50:52;;;;;;;21.47;11.73;;;;;;;1.10;69.15;97988.03;6335666;27;20191;-53
2024/01/13 11:53:56;;;;;;;20.63;11.47;;;;;;;1.04;70.57;97978.22;6338112;27;20209;-50
2024/01/13 11:57:01;;;;;;;23.73;12.27;;;;;;;0.99;70.05;97970.88;6334726;27;20206;-49
2024/01/13 12:00:07;;;;;;;21.80;11.47;;;;;;;0.95;69.02;97955.66;6334066;27;20197;-51
2024/01/13 12:03:10;;;;;;;23.87;11.73;;;;;;;1.23;64.76;97953.31;6331269;28;20268;-51
2024/01/13 12:06:12;;;;;;;19.73;11.23;;;;;;;1.20;65.24;97935.31;6334658;27;20697;-50
2024/01/13 12:09:18;;;;;;;22.17;11.53;;;;;;;1.16;64.65;97941.91;6327430;27;20195;-49
2024/01/13 12:12:21;;;;;;;23.17;12.87;;;;;;;1.25;68.53;97927.72;6327689;27;20693;-49
2024/01/13 12:15:23;;;;;;;20.80;11.40;;;;;;;1.10;68.68;97916.38;6336365;27;20219;-47
2024/01/13 12:18:26;;;;;;;21.13;10.73;;;;;;;1.10;64.18;97911.94;6335736;27;20205;-48
2024/01/13 12:21:30;;;;;;;27.50;14.97;;;;;;;1.16;67.55;97892.88;6333174;27;20670;-50
2024/01/13 12:24:42;;;;;;;27.77;14.13;;;;;;;1.27;69.75;97902.94;6332733;27;20608;-49
2024/01/13 12:27:44;;;;;;;21.80;12.33;;;;;;;1.18;70.40;97896.16;6342991;27;20317;-50
2024/01/13 12:30:50;;;;;;;22.83;13.23;;;;;;;1.14;71.45;97892.25;6334446;27;20192;-48
2024/01/13 12:33:52;;;;;;;21.50;12.60;;;;;;;1.09;71.18;97891.13;6337542;27;20197;-49
2024/01/13 12:36:56;;;;;;;21.53;11.87;;;;;;;1.04;72.00;97891.66;6280363;28;20245;-49
2024/01/13 12:39:58;;;;;;;21.60;12.47;;;;;;;0.90;72.64;97876.69;6280103;28;20216;-50
2024/01/13 12:43:01;;;;;;;23.00;12.33;;;;;;;0.84;72.50;97866.88;6214128;28;20853;-49
2024/01/13 12:46:03;;;;;;;25.03;13.87;;;;;;;0.91;71.75;97886.19;6212888;28;20574;-47
2024/01/13 12:49:18;;;;;;;28.80;13.07;;;;;;;0.84;72.92;97872.13;6214352;28;20194;-50
2024/01/13 12:52:20;;;;;;;22.83;13.43;;;;;;;0.73;74.06;97868.09;6207495;28;20235;-51
2024/01/13 12:55:23;;;;;;;22.73;13.03;;;;;;;0.66;74.66;97861.94;6199064;28;20194;-53
2024/01/13 12:58:25;;;;;;;23.70;12.90;;;;;;;0.58;74.82;97852.31;6208484;28;20204;-50
2024/01/13 13:01:28;;;;;;;20.17;10.60;;;;;;;0.68;67.30;97845.03;6252784;28;20208;-50
2024/01/13 13:04:30;;;;;;;17.20;8.37;;;;;;;1.41;59.90;97822.59;6267806;28;20323;-47
2024/01/13 13:07:32;;;;;;;14.13;8.07;;;;;;;1.42;60.62;97839.16;6205977;28;20192;-49
2024/01/13 13:10:35;;;;;;;19.60;9.83;;;;;;;1.48;61.01;97822.72;6199272;28;20306;-53
2024/01/13 13:13:37;;;;;;;18.77;9.70;;;;;;;1.67;56.54;97814.25;6203852;28;20192;-54
2024/01/13 13:16:39;;;;;;;14.70;9.07;;;;;;;1.35;58.96;97778.72;6203795;28;20206;-47
2024/01/13 13:19:41;;;;;;;20.90;10.30;;;;;;;1.03;63.07;97792.94;6203285;28;20576;-52
2024/01/13 13:22:44;;;;;;;16.23;8.60;;;;;;;0.74;64.99;97812.09;6188973;28;21131;-51
2024/01/13 13:25:46;;;;;;;18.67;9.37;;;;;;;1.23;59.77;97835.22;6202256;28;20189;-53
2024/01/13 13:28:48;;;;;;;15.90;8.77;;;;;;;1.30;60.79;97830.91;6205746;28;20833;-53
2024/01/13 13:31:51;;;;;;;18.87;9.50;;;;;;;1.43;59.21;97827.66;6205156;28;20205;-46
2024/01/13 13:34:53;;;;;;;17.87;8.80;;;;;;;1.10;62.03;97832.44;6203627;28;20198;-48
2024/01/13 13:38:13;;;;;;;21.10;9.40;;;;;;;1.22;59.54;97831.81;6206068;28;20234;-50
2024/01/13 13:41:16;;;;;;;18.73;9.10;;;;;;;0.96;63.71;97839.25;6202768;28;20670;-48
2024/01/13 13:44:18;;;;;;;21.07;10.77;;;;;;;0.88;61.41;97820.97;6216897;28;20640;-49
2024/01/13 13:47:20;;;;;;;20.93;10.27;;;;;;;0.90;60.14;97821.63;6196131;28;20299;-52
2024/01/13 13:50:29;;;;;;;18.37;10.30;;;;;;;0.77;61.21;97825.63;6207904;28;20272;-48
2024/01/13 13:53:31;;;;;;;23.50;10.10;;;;;;;0.70;61.58;97808.19;6210302;28;20235;-49
2024/01/13 13:56:33;;;;;;;18.70;10.20;;;;;;;0.59;64.91;97814.66;6213646;28;20290;-51
2024/01/13 13:59:36;;;;;;;19.93;10.63;;;;;;;0.31;67.89;97798.63;6284311;27;20224;-48
2024/01/13 14:02:38;;;;;;;20.87;9.37;;;;;;;0.04;69.07;97815.63;6331775;27;20268;-51